sensor_id;sensor_type;location;lat;lon;timestamp;P1;P2;P0
28026;PMS5003;15344;52.342;-1.290;2023-06-22T00:02:15;7;6;
28026;PMS5003;15344;52.342;-1.290;2023-06-22T00:04:40;6;6;
28026;PMS5003;15344;52.342;-1.290;2023-06-22T00:07:05;6;6;
28026;PMS5003;15344;52.342;-1.290;2023-06-22T00:09:30;11;8;
28026;PMS5003;15344;52.342;-1.290;2023-06-22T00:11:55;6;6;
28026;PMS5003;15344;52.342;-1.290;2023-06-22T00:14:20;9;9;
28026;PMS5003;15344;52.342;-1.290;2023-06-22T00:16:45;5;5;
28026;PMS5003;15344;52.342;-1.290;2023-06-22T00:19:10;7;7;
28026;PMS5003;15344;52.342;-1.290;2023-06-22T00:21:35;9;9;
28026;PMS5003;15344;52.342;-1.290;2023-06-22T00:24:00;11;9;
28026;PMS5003;15344;52.342;-1.290;2023-06-22T00:26:26;11;8;
28026;PMS5003;15344;52.342;-1.290;2023-06-22T00:28:51;8;7;
28026;PMS5003;15344;52.342;-1.290;2023-06-22T00:31:16;10;8;
28026;PMS5003;15344;52.342;-1.290;2023-06-22T00:33:41;7;6;
28026;PMS5003;15344;52.342;-1.290;2023-06-22T00:36:06;9;9;
28026;PMS5003;15344;52.342;-1.290;2023-06-22T00:38:32;9;9;
28026;PMS5003;15344;52.342;-1.290;2023-06-22T00:40:57;8;8;
28026;PMS5003;15344;52.342;-1.290;2023-06-22T00:43:22;10;9;
28026;PMS5003;15344;52.342;-1.290;2023-06-22T00:45:47;9;8;
28026;PMS5003;15344;52.342;-1.290;2023-06-22T00:48:12;7;7;
28026;PMS5003;15344;52.342;-1.290;2023-06-22T00:50:38;8;8;
28026;PMS5003;15344;52.342;-1.290;2023-06-22T00:53:03;11;7;
28026;PMS5003;15344;52.342;-1.290;2023-06-22T00:55:29;10;7;
28026;PMS5003;15344;52.342;-1.290;2023-06-22T00:57:53;6;6;
28026;PMS5003;15344;52.342;-1.290;2023-06-22T01:00:18;13;10;
28026;PMS5003;15344;52.342;-1.290;2023-06-22T01:02:44;9;8;
28026;PMS5003;15344;52.342;-1.290;2023-06-22T01:05:09;9;9;
28026;PMS5003;15344;52.342;-1.290;2023-06-22T01:07:35;11;9;
28026;PMS5003;15344;52.342;-1.290;2023-06-22T01:10:06;7;6;
28026;PMS5003;15344;52.342;-1.290;2023-06-22T01:12:24;9;7;
28026;PMS5003;15344;52.342;-1.290;2023-06-22T01:14:50;12;9;
28026;PMS5003;15344;52.342;-1.290;2023-06-22T01:17:15;10;9;
28026;PMS5003;15344;52.342;-1.290;2023-06-22T01:19:43;7;5;
28026;PMS5003;15344;52.342;-1.290;2023-06-22T01:22:06;11;10;
28026;PMS5003;15344;52.342;-1.290;2023-06-22T01:24:32;10;7;
28026;PMS5003;15344;52.342;-1.290;2023-06-22T01:26:59;8;8;
28026;PMS5003;15344;52.342;-1.290;2023-06-22T01:29:21;9;8;
28026;PMS5003;15344;52.342;-1.290;2023-06-22T01:31:47;10;9;
28026;PMS5003;15344;52.342;-1.290;2023-06-22T01:34:12;11;10;
28026;PMS5003;15344;52.342;-1.290;2023-06-22T01:36:37;13;11;
28026;PMS5003;15344;52.342;-1.290;2023-06-22T01:39:02;14;9;
28026;PMS5003;15344;52.342;-1.290;2023-06-22T01:41:28;12;9;
28026;PMS5003;15344;52.342;-1.290;2023-06-22T01:43:53;12;10;
28026;PMS5003;15344;52.342;-1.290;2023-06-22T01:46:18;11;10;
28026;PMS5003;15344;52.342;-1.290;2023-06-22T01:48:43;9;8;
28026;PMS5003;15344;52.342;-1.290;2023-06-22T01:51:08;13;11;
28026;PMS5003;15344;52.342;-1.290;2023-06-22T01:53:33;10;9;
28026;PMS5003;15344;52.342;-1.290;2023-06-22T01:55:58;11;9;
28026;PMS5003;15344;52.342;-1.290;2023-06-22T01:58:25;9;8;
28026;PMS5003;15344;52.342;-1.290;2023-06-22T02:00:50;8;8;
28026;PMS5003;15344;52.342;-1.290;2023-06-22T02:03:14;7;7;
28026;PMS5003;15344;52.342;-1.290;2023-06-22T02:05:39;9;9;
28026;PMS5003;15344;52.342;-1.290;2023-06-22T02:08:06;9;9;
28026;PMS5003;15344;52.342;-1.290;2023-06-22T02:10:29;6;6;
28026;PMS5003;15344;52.342;-1.290;2023-06-22T02:12:54;10;8;
28026;PMS5003;15344;52.342;-1.290;2023-06-22T02:15:19;9;8;
28026;PMS5003;15344;52.342;-1.290;2023-06-22T02:17:45;10;9;
28026;PMS5003;15344;52.342;-1.290;2023-06-22T02:20:12;10;10;
28026;PMS5003;15344;52.342;-1.290;2023-06-22T02:22:35;7;7;
28026;PMS5003;15344;52.342;-1.290;2023-06-22T02:25:00;8;8;
28026;PMS5003;15344;52.342;-1.290;2023-06-22T02:27:26;8;8;
28026;PMS5003;15344;52.342;-1.290;2023-06-22T02:29:51;9;9;
28026;PMS5003;15344;52.342;-1.290;2023-06-22T02:32:16;9;8;
28026;PMS5003;15344;52.342;-1.290;2023-06-22T02:34:41;8;8;
28026;PMS5003;15344;52.342;-1.290;2023-06-22T02:37:07;14;11;
28026;PMS5003;15344;52.342;-1.290;2023-06-22T02:39:32;12;11;
28026;PMS5003;15344;52.342;-1.290;2023-06-22T02:41:57;12;9;
28026;PMS5003;15344;52.342;-1.290;2023-06-22T02:44:22;9;6;
28026;PMS5003;15344;52.342;-1.290;2023-06-22T02:46:48;10;10;
28026;PMS5003;15344;52.342;-1.290;2023-06-22T02:49:13;10;9;
28026;PMS5003;15344;52.342;-1.290;2023-06-22T02:51:38;7;6;
28026;PMS5003;15344;52.342;-1.290;2023-06-22T02:54:04;10;8;
28026;PMS5003;15344;52.342;-1.290;2023-06-22T02:56:29;12;10;
28026;PMS5003;15344;52.342;-1.290;2023-06-22T02:58:54;10;9;
28026;PMS5003;15344;52.342;-1.290;2023-06-22T03:01:20;14;11;
28026;PMS5003;15344;52.342;-1.290;2023-06-22T03:03:45;12;10;
28026;PMS5003;15344;52.342;-1.290;2023-06-22T03:06:10;10;8;
28026;PMS5003;15344;52.342;-1.290;2023-06-22T03:08:35;12;10;
28026;PMS5003;15344;52.342;-1.290;2023-06-22T03:11:01;11;9;
28026;PMS5003;15344;52.342;-1.290;2023-06-22T03:13:26;12;11;
28026;PMS5003;15344;52.342;-1.290;2023-06-22T03:15:51;13;12;
28026;PMS5003;15344;52.342;-1.290;2023-06-22T03:18:16;12;10;
28026;PMS5003;15344;52.342;-1.290;2023-06-22T03:20:42;16;10;
28026;PMS5003;15344;52.342;-1.290;2023-06-22T03:23:07;11;9;
28026;PMS5003;15344;52.342;-1.290;2023-06-22T03:25:32;10;9;
28026;PMS5003;15344;52.342;-1.290;2023-06-22T03:27:57;11;11;
28026;PMS5003;15344;52.342;-1.290;2023-06-22T03:30:23;10;10;
28026;PMS5003;15344;52.342;-1.290;2023-06-22T03:32:48;16;13;
28026;PMS5003;15344;52.342;-1.290;2023-06-22T03:35:14;18;13;
28026;PMS5003;15344;52.342;-1.290;2023-06-22T03:37:39;9;8;
28026;PMS5003;15344;52.342;-1.290;2023-06-22T03:40:05;12;10;
28026;PMS5003;15344;52.342;-1.290;2023-06-22T03:42:30;15;11;
28026;PMS5003;15344;52.342;-1.290;2023-06-22T03:44:55;9;9;
28026;PMS5003;15344;52.342;-1.290;2023-06-22T03:47:21;11;10;
28026;PMS5003;15344;52.342;-1.290;2023-06-22T03:49:46;10;9;
28026;PMS5003;15344;52.342;-1.290;2023-06-22T03:52:12;11;11;
28026;PMS5003;15344;52.342;-1.290;2023-06-22T03:54:37;10;9;
28026;PMS5003;15344;52.342;-1.290;2023-06-22T03:57:03;15;12;
28026;PMS5003;15344;52.342;-1.290;2023-06-22T03:59:28;10;9;
28026;PMS5003;15344;52.342;-1.290;2023-06-22T04:01:53;11;9;
28026;PMS5003;15344;52.342;-1.290;2023-06-22T04:04:18;14;11;
28026;PMS5003;15344;52.342;-1.290;2023-06-22T04:06:43;11;11;
28026;PMS5003;15344;52.342;-1.290;2023-06-22T04:09:08;13;10;
28026;PMS5003;15344;52.342;-1.290;2023-06-22T04:11:34;11;9;
28026;PMS5003;15344;52.342;-1.290;2023-06-22T04:13:59;11;9;
28026;PMS5003;15344;52.342;-1.290;2023-06-22T04:16:25;12;9;
28026;PMS5003;15344;52.342;-1.290;2023-06-22T04:18:50;14;10;
28026;PMS5003;15344;52.342;-1.290;2023-06-22T04:21:16;15;13;
28026;PMS5003;15344;52.342;-1.290;2023-06-22T04:23:42;11;10;
28026;PMS5003;15344;52.342;-1.290;2023-06-22T04:26:07;10;10;
28026;PMS5003;15344;52.342;-1.290;2023-06-22T04:28:32;14;10;
28026;PMS5003;15344;52.342;-1.290;2023-06-22T04:30:57;10;9;
28026;PMS5003;15344;52.342;-1.290;2023-06-22T04:33:22;11;7;
28026;PMS5003;15344;52.342;-1.290;2023-06-22T04:35:48;8;8;
28026;PMS5003;15344;52.342;-1.290;2023-06-22T04:38:13;12;10;
28026;PMS5003;15344;52.342;-1.290;2023-06-22T04:40:39;14;13;
28026;PMS5003;15344;52.342;-1.290;2023-06-22T04:43:04;17;9;
28026;PMS5003;15344;52.342;-1.290;2023-06-22T04:45:30;8;7;
28026;PMS5003;15344;52.342;-1.290;2023-06-22T04:47:55;13;10;
28026;PMS5003;15344;52.342;-1.290;2023-06-22T04:50:20;11;10;
28026;PMS5003;15344;52.342;-1.290;2023-06-22T04:52:45;12;9;
28026;PMS5003;15344;52.342;-1.290;2023-06-22T04:55:10;10;9;
28026;PMS5003;15344;52.342;-1.290;2023-06-22T04:57:36;9;7;
28026;PMS5003;15344;52.342;-1.290;2023-06-22T05:00:02;11;10;
28026;PMS5003;15344;52.342;-1.290;2023-06-22T05:02:27;16;15;
28026;PMS5003;15344;52.342;-1.290;2023-06-22T05:04:53;14;13;
28026;PMS5003;15344;52.342;-1.290;2023-06-22T05:07:18;14;12;
28026;PMS5003;15344;52.342;-1.290;2023-06-22T05:09:43;15;11;
28026;PMS5003;15344;52.342;-1.290;2023-06-22T05:12:09;14;11;
28026;PMS5003;15344;52.342;-1.290;2023-06-22T05:14:34;8;8;
28026;PMS5003;15344;52.342;-1.290;2023-06-22T05:17:00;14;12;
28026;PMS5003;15344;52.342;-1.290;2023-06-22T05:19:26;11;11;
28026;PMS5003;15344;52.342;-1.290;2023-06-22T05:21:51;13;11;
28026;PMS5003;15344;52.342;-1.290;2023-06-22T05:24:16;11;9;
28026;PMS5003;15344;52.342;-1.290;2023-06-22T05:26:41;10;10;
28026;PMS5003;15344;52.342;-1.290;2023-06-22T05:29:06;18;13;
28026;PMS5003;15344;52.342;-1.290;2023-06-22T05:31:32;14;12;
28026;PMS5003;15344;52.342;-1.290;2023-06-22T05:33:57;16;13;
28026;PMS5003;15344;52.342;-1.290;2023-06-22T05:36:22;12;11;
28026;PMS5003;15344;52.342;-1.290;2023-06-22T05:38:47;15;14;
28026;PMS5003;15344;52.342;-1.290;2023-06-22T05:41:13;14;13;
28026;PMS5003;15344;52.342;-1.290;2023-06-22T05:43:38;13;13;
28026;PMS5003;15344;52.342;-1.290;2023-06-22T05:46:04;13;12;
28026;PMS5003;15344;52.342;-1.290;2023-06-22T05:48:29;12;12;
28026;PMS5003;15344;52.342;-1.290;2023-06-22T05:50:54;11;11;
28026;PMS5003;15344;52.342;-1.290;2023-06-22T05:53:19;11;10;
28026;PMS5003;15344;52.342;-1.290;2023-06-22T05:55:44;11;10;
28026;PMS5003;15344;52.342;-1.290;2023-06-22T05:58:09;12;12;
28026;PMS5003;15344;52.342;-1.290;2023-06-22T06:00:35;21;14;
28026;PMS5003;15344;52.342;-1.290;2023-06-22T06:03:00;11;11;
28026;PMS5003;15344;52.342;-1.290;2023-06-22T06:05:26;10;10;
28026;PMS5003;15344;52.342;-1.290;2023-06-22T06:07:51;12;12;
28026;PMS5003;15344;52.342;-1.290;2023-06-22T06:10:16;13;13;
28026;PMS5003;15344;52.342;-1.290;2023-06-22T06:12:41;18;13;
28026;PMS5003;15344;52.342;-1.290;2023-06-22T06:15:07;16;14;
28026;PMS5003;15344;52.342;-1.290;2023-06-22T06:17:32;14;12;
28026;PMS5003;15344;52.342;-1.290;2023-06-22T06:19:59;16;16;
28026;PMS5003;15344;52.342;-1.290;2023-06-22T06:22:23;17;15;
28026;PMS5003;15344;52.342;-1.290;2023-06-22T06:24:48;13;12;
28026;PMS5003;15344;52.342;-1.290;2023-06-22T06:27:14;15;12;
28026;PMS5003;15344;52.342;-1.290;2023-06-22T06:29:39;18;14;
28026;PMS5003;15344;52.342;-1.290;2023-06-22T06:32:04;16;14;
28026;PMS5003;15344;52.342;-1.290;2023-06-22T06:34:30;15;13;
28026;PMS5003;15344;52.342;-1.290;2023-06-22T06:36:55;13;12;
28026;PMS5003;15344;52.342;-1.290;2023-06-22T06:39:20;11;11;
28026;PMS5003;15344;52.342;-1.290;2023-06-22T06:41:45;12;11;
28026;PMS5003;15344;52.342;-1.290;2023-06-22T06:44:11;10;10;
28026;PMS5003;15344;52.342;-1.290;2023-06-22T06:46:37;15;14;
28026;PMS5003;15344;52.342;-1.290;2023-06-22T06:49:02;14;13;
28026;PMS5003;15344;52.342;-1.290;2023-06-22T06:51:28;13;13;
28026;PMS5003;15344;52.342;-1.290;2023-06-22T06:53:54;11;11;
28026;PMS5003;15344;52.342;-1.290;2023-06-22T06:56:20;12;12;
28026;PMS5003;15344;52.342;-1.290;2023-06-22T06:58:45;14;11;
28026;PMS5003;15344;52.342;-1.290;2023-06-22T07:01:11;12;11;
28026;PMS5003;15344;52.342;-1.290;2023-06-22T07:03:36;10;8;
28026;PMS5003;15344;52.342;-1.290;2023-06-22T07:06:02;14;12;
28026;PMS5003;15344;52.342;-1.290;2023-06-22T07:08:28;12;10;
28026;PMS5003;15344;52.342;-1.290;2023-06-22T07:10:53;13;12;
28026;PMS5003;15344;52.342;-1.290;2023-06-22T07:13:19;13;12;
28026;PMS5003;15344;52.342;-1.290;2023-06-22T07:15:44;11;11;
28026;PMS5003;15344;52.342;-1.290;2023-06-22T07:18:10;15;13;
28026;PMS5003;15344;52.342;-1.290;2023-06-22T07:20:35;12;10;
28026;PMS5003;15344;52.342;-1.290;2023-06-22T07:23:01;11;11;
28026;PMS5003;15344;52.342;-1.290;2023-06-22T07:25:26;12;10;
28026;PMS5003;15344;52.342;-1.290;2023-06-22T07:30:17;13;12;
28026;PMS5003;15344;52.342;-1.290;2023-06-22T07:32:43;15;12;
28026;PMS5003;15344;52.342;-1.290;2023-06-22T07:35:08;12;12;
28026;PMS5003;15344;52.342;-1.290;2023-06-22T07:37:34;11;10;
28026;PMS5003;15344;52.342;-1.290;2023-06-22T07:39:59;12;11;
28026;PMS5003;15344;52.342;-1.290;2023-06-22T07:42:25;12;8;
28026;PMS5003;15344;52.342;-1.290;2023-06-22T07:44:51;9;8;
28026;PMS5003;15344;52.342;-1.290;2023-06-22T07:47:17;10;9;
28026;PMS5003;15344;52.342;-1.290;2023-06-22T07:49:42;13;11;
28026;PMS5003;15344;52.342;-1.290;2023-06-22T07:52:08;9;9;
28026;PMS5003;15344;52.342;-1.290;2023-06-22T07:54:33;8;8;
28026;PMS5003;15344;52.342;-1.290;2023-06-22T07:56:58;9;7;
28026;PMS5003;15344;52.342;-1.290;2023-06-22T07:59:24;11;9;
28026;PMS5003;15344;52.342;-1.290;2023-06-22T08:01:50;9;7;
28026;PMS5003;15344;52.342;-1.290;2023-06-22T08:04:15;7;7;
28026;PMS5003;15344;52.342;-1.290;2023-06-22T08:06:41;10;7;
28026;PMS5003;15344;52.342;-1.290;2023-06-22T08:09:06;10;8;
28026;PMS5003;15344;52.342;-1.290;2023-06-22T08:11:32;8;6;
28026;PMS5003;15344;52.342;-1.290;2023-06-22T08:13:57;8;7;
28026;PMS5003;15344;52.342;-1.290;2023-06-22T08:16:22;7;7;
28026;PMS5003;15344;52.342;-1.290;2023-06-22T08:18:48;8;8;
28026;PMS5003;15344;52.342;-1.290;2023-06-22T08:21:13;8;5;
28026;PMS5003;15344;52.342;-1.290;2023-06-22T08:23:39;5;5;
28026;PMS5003;15344;52.342;-1.290;2023-06-22T08:26:05;8;6;
28026;PMS5003;15344;52.342;-1.290;2023-06-22T08:28:30;6;6;
28026;PMS5003;15344;52.342;-1.290;2023-06-22T08:30:56;7;7;
28026;PMS5003;15344;52.342;-1.290;2023-06-22T08:33:21;4;4;
28026;PMS5003;15344;52.342;-1.290;2023-06-22T08:35:47;10;6;
28026;PMS5003;15344;52.342;-1.290;2023-06-22T08:38:12;7;7;
28026;PMS5003;15344;52.342;-1.290;2023-06-22T08:40:38;7;5;
28026;PMS5003;15344;52.342;-1.290;2023-06-22T08:43:03;6;3;
28026;PMS5003;15344;52.342;-1.290;2023-06-22T08:45:29;7;7;
28026;PMS5003;15344;52.342;-1.290;2023-06-22T08:47:54;7;5;
28026;PMS5003;15344;52.342;-1.290;2023-06-22T08:50:20;5;5;
28026;PMS5003;15344;52.342;-1.290;2023-06-22T08:52:45;6;6;
28026;PMS5003;15344;52.342;-1.290;2023-06-22T08:55:11;6;6;
28026;PMS5003;15344;52.342;-1.290;2023-06-22T08:57:36;6;4;
28026;PMS5003;15344;52.342;-1.290;2023-06-22T09:00:02;9;8;
28026;PMS5003;15344;52.342;-1.290;2023-06-22T09:02:28;5;5;
28026;PMS5003;15344;52.342;-1.290;2023-06-22T09:04:53;4;4;
28026;PMS5003;15344;52.342;-1.290;2023-06-22T09:07:19;4;4;
28026;PMS5003;15344;52.342;-1.290;2023-06-22T09:09:44;6;5;
28026;PMS5003;15344;52.342;-1.290;2023-06-22T09:12:10;8;7;
28026;PMS5003;15344;52.342;-1.290;2023-06-22T09:14:36;6;6;
28026;PMS5003;15344;52.342;-1.290;2023-06-22T09:17:01;6;6;
28026;PMS5003;15344;52.342;-1.290;2023-06-22T09:19:27;6;4;
28026;PMS5003;15344;52.342;-1.290;2023-06-22T09:21:53;9;7;
28026;PMS5003;15344;52.342;-1.290;2023-06-22T09:24:18;9;7;
28026;PMS5003;15344;52.342;-1.290;2023-06-22T09:26:44;8;8;
28026;PMS5003;15344;52.342;-1.290;2023-06-22T09:29:09;7;7;
28026;PMS5003;15344;52.342;-1.290;2023-06-22T09:31:35;10;8;
28026;PMS5003;15344;52.342;-1.290;2023-06-22T09:34:01;8;7;
28026;PMS5003;15344;52.342;-1.290;2023-06-22T09:36:26;9;7;
28026;PMS5003;15344;52.342;-1.290;2023-06-22T09:38:52;9;7;
28026;PMS5003;15344;52.342;-1.290;2023-06-22T09:41:18;9;8;
28026;PMS5003;15344;52.342;-1.290;2023-06-22T09:43:43;6;6;
28026;PMS5003;15344;52.342;-1.290;2023-06-22T09:46:10;6;6;
28026;PMS5003;15344;52.342;-1.290;2023-06-22T09:48:35;6;6;
28026;PMS5003;15344;52.342;-1.290;2023-06-22T09:51:00;8;8;
28026;PMS5003;15344;52.342;-1.290;2023-06-22T09:53:26;7;7;
28026;PMS5003;15344;52.342;-1.290;2023-06-22T09:55:51;9;7;
28026;PMS5003;15344;52.342;-1.290;2023-06-22T09:58:17;6;6;
28026;PMS5003;15344;52.342;-1.290;2023-06-22T10:00:43;9;6;
28026;PMS5003;15344;52.342;-1.290;2023-06-22T10:03:08;8;6;
28026;PMS5003;15344;52.342;-1.290;2023-06-22T10:05:34;7;7;
28026;PMS5003;15344;52.342;-1.290;2023-06-22T10:08:00;9;7;
28026;PMS5003;15344;52.342;-1.290;2023-06-22T10:10:26;7;7;
28026;PMS5003;15344;52.342;-1.290;2023-06-22T10:12:54;5;5;
28026;PMS5003;15344;52.342;-1.290;2023-06-22T10:15:17;5;5;
28026;PMS5003;15344;52.342;-1.290;2023-06-22T10:17:42;7;5;
28026;PMS5003;15344;52.342;-1.290;2023-06-22T10:20:08;4;4;
28026;PMS5003;15344;52.342;-1.290;2023-06-22T10:22:34;4;4;
28026;PMS5003;15344;52.342;-1.290;2023-06-22T10:24:59;3;3;
28026;PMS5003;15344;52.342;-1.290;2023-06-22T10:27:25;7;4;
28026;PMS5003;15344;52.342;-1.290;2023-06-22T10:29:50;5;5;
28026;PMS5003;15344;52.342;-1.290;2023-06-22T10:32:16;5;5;
28026;PMS5003;15344;52.342;-1.290;2023-06-22T10:34:41;5;5;
28026;PMS5003;15344;52.342;-1.290;2023-06-22T10:37:07;4;4;
28026;PMS5003;15344;52.342;-1.290;2023-06-22T10:39:32;6;6;
28026;PMS5003;15344;52.342;-1.290;2023-06-22T10:41:58;6;5;
28026;PMS5003;15344;52.342;-1.290;2023-06-22T10:44:23;5;5;
28026;PMS5003;15344;52.342;-1.290;2023-06-22T10:46:49;5;5;
28026;PMS5003;15344;52.342;-1.290;2023-06-22T10:49:15;5;5;
28026;PMS5003;15344;52.342;-1.290;2023-06-22T10:51:40;5;5;
28026;PMS5003;15344;52.342;-1.290;2023-06-22T10:54:06;8;5;
28026;PMS5003;15344;52.342;-1.290;2023-06-22T10:56:31;9;8;
28026;PMS5003;15344;52.342;-1.290;2023-06-22T10:58:57;5;5;
28026;PMS5003;15344;52.342;-1.290;2023-06-22T11:01:22;6;5;
28026;PMS5003;15344;52.342;-1.290;2023-06-22T11:03:48;5;4;
28026;PMS5003;15344;52.342;-1.290;2023-06-22T11:06:13;8;7;
28026;PMS5003;15344;52.342;-1.290;2023-06-22T11:08:39;6;6;
28026;PMS5003;15344;52.342;-1.290;2023-06-22T11:11:05;4;4;
28026;PMS5003;15344;52.342;-1.290;2023-06-22T11:13:30;10;6;
28026;PMS5003;15344;52.342;-1.290;2023-06-22T11:15:56;5;5;
28026;PMS5003;15344;52.342;-1.290;2023-06-22T11:18:21;7;6;
28026;PMS5003;15344;52.342;-1.290;2023-06-22T11:20:47;6;6;
28026;PMS5003;15344;52.342;-1.290;2023-06-22T11:23:12;9;6;
28026;PMS5003;15344;52.342;-1.290;2023-06-22T11:25:38;5;5;
28026;PMS5003;15344;52.342;-1.290;2023-06-22T11:28:04;6;4;
28026;PMS5003;15344;52.342;-1.290;2023-06-22T11:30:29;6;4;
28026;PMS5003;15344;52.342;-1.290;2023-06-22T11:32:55;5;5;
28026;PMS5003;15344;52.342;-1.290;2023-06-22T11:35:20;5;5;
28026;PMS5003;15344;52.342;-1.290;2023-06-22T11:37:46;5;5;
28026;PMS5003;15344;52.342;-1.290;2023-06-22T11:40:12;6;6;
28026;PMS5003;15344;52.342;-1.290;2023-06-22T11:42:37;8;8;
28026;PMS5003;15344;52.342;-1.290;2023-06-22T11:45:04;4;4;
28026;PMS5003;15344;52.342;-1.290;2023-06-22T11:47:29;5;5;
28026;PMS5003;15344;52.342;-1.290;2023-06-22T11:49:54;6;6;
28026;PMS5003;15344;52.342;-1.290;2023-06-22T11:52:20;6;6;
28026;PMS5003;15344;52.342;-1.290;2023-06-22T11:54:45;5;5;
28026;PMS5003;15344;52.342;-1.290;2023-06-22T11:57:11;5;5;
28026;PMS5003;15344;52.342;-1.290;2023-06-22T11:59:37;7;7;
28026;PMS5003;15344;52.342;-1.290;2023-06-22T12:02:03;5;5;
28026;PMS5003;15344;52.342;-1.290;2023-06-22T12:04:28;5;5;
28026;PMS5003;15344;52.342;-1.290;2023-06-22T12:06:53;7;7;
28026;PMS5003;15344;52.342;-1.290;2023-06-22T12:09:19;7;7;
28026;PMS5003;15344;52.342;-1.290;2023-06-22T12:11:45;9;6;
28026;PMS5003;15344;52.342;-1.290;2023-06-22T12:14:11;7;7;
28026;PMS5003;15344;52.342;-1.290;2023-06-22T12:16:36;5;5;
28026;PMS5003;15344;52.342;-1.290;2023-06-22T12:19:02;9;7;
28026;PMS5003;15344;52.342;-1.290;2023-06-22T12:21:28;4;4;
28026;PMS5003;15344;52.342;-1.290;2023-06-22T12:23:53;6;6;
28026;PMS5003;15344;52.342;-1.290;2023-06-22T12:26:19;5;5;
28026;PMS5003;15344;52.342;-1.290;2023-06-22T12:28:44;9;7;
28026;PMS5003;15344;52.342;-1.290;2023-06-22T12:31:10;6;6;
28026;PMS5003;15344;52.342;-1.290;2023-06-22T12:33:36;7;7;
28026;PMS5003;15344;52.342;-1.290;2023-06-22T12:36:02;7;7;
28026;PMS5003;15344;52.342;-1.290;2023-06-22T12:38:27;4;4;
28026;PMS5003;15344;52.342;-1.290;2023-06-22T12:40:53;10;8;
28026;PMS5003;15344;52.342;-1.290;2023-06-22T12:43:19;4;4;
28026;PMS5003;15344;52.342;-1.290;2023-06-22T12:45:44;5;5;
28026;PMS5003;15344;52.342;-1.290;2023-06-22T12:48:10;6;6;
28026;PMS5003;15344;52.342;-1.290;2023-06-22T12:50:35;6;6;
28026;PMS5003;15344;52.342;-1.290;2023-06-22T12:53:01;7;7;
28026;PMS5003;15344;52.342;-1.290;2023-06-22T12:55:27;5;5;
28026;PMS5003;15344;52.342;-1.290;2023-06-22T12:57:52;6;6;
28026;PMS5003;15344;52.342;-1.290;2023-06-22T13:00:19;8;6;
28026;PMS5003;15344;52.342;-1.290;2023-06-22T13:02:44;6;6;
28026;PMS5003;15344;52.342;-1.290;2023-06-22T13:05:09;6;6;
28026;PMS5003;15344;52.342;-1.290;2023-06-22T13:07:35;8;7;
28026;PMS5003;15344;52.342;-1.290;2023-06-22T13:10:01;6;6;
28026;PMS5003;15344;52.342;-1.290;2023-06-22T13:12:27;6;6;
28026;PMS5003;15344;52.342;-1.290;2023-06-22T13:14:52;6;6;
28026;PMS5003;15344;52.342;-1.290;2023-06-22T13:17:18;9;7;
28026;PMS5003;15344;52.342;-1.290;2023-06-22T13:19:44;7;7;
28026;PMS5003;15344;52.342;-1.290;2023-06-22T13:24:35;8;6;
28026;PMS5003;15344;52.342;-1.290;2023-06-22T13:27:00;8;7;
28026;PMS5003;15344;52.342;-1.290;2023-06-22T13:29:26;5;5;
28026;PMS5003;15344;52.342;-1.290;2023-06-22T13:31:52;6;6;
28026;PMS5003;15344;52.342;-1.290;2023-06-22T13:34:17;6;5;
28026;PMS5003;15344;52.342;-1.290;2023-06-22T13:36:43;4;3;
28026;PMS5003;15344;52.342;-1.290;2023-06-22T13:39:09;7;7;
28026;PMS5003;15344;52.342;-1.290;2023-06-22T13:41:34;8;6;
28026;PMS5003;15344;52.342;-1.290;2023-06-22T13:44:00;5;5;
28026;PMS5003;15344;52.342;-1.290;2023-06-22T13:46:27;6;6;
28026;PMS5003;15344;52.342;-1.290;2023-06-22T13:48:52;5;5;
28026;PMS5003;15344;52.342;-1.290;2023-06-22T13:51:17;8;8;
28026;PMS5003;15344;52.342;-1.290;2023-06-22T13:53:43;11;10;
28026;PMS5003;15344;52.342;-1.290;2023-06-22T13:56:08;8;8;
28026;PMS5003;15344;52.342;-1.290;2023-06-22T13:58:34;9;9;
28026;PMS5003;15344;52.342;-1.290;2023-06-22T14:01:00;8;8;
28026;PMS5003;15344;52.342;-1.290;2023-06-22T14:03:25;7;7;
28026;PMS5003;15344;52.342;-1.290;2023-06-22T14:05:51;12;11;
28026;PMS5003;15344;52.342;-1.290;2023-06-22T14:08:17;11;8;
28026;PMS5003;15344;52.342;-1.290;2023-06-22T14:10:42;8;8;
28026;PMS5003;15344;52.342;-1.290;2023-06-22T14:13:08;9;8;
28026;PMS5003;15344;52.342;-1.290;2023-06-22T14:15:33;11;10;
28026;PMS5003;15344;52.342;-1.290;2023-06-22T14:17:59;12;10;
28026;PMS5003;15344;52.342;-1.290;2023-06-22T14:20:25;16;14;
28026;PMS5003;15344;52.342;-1.290;2023-06-22T14:22:50;14;12;
28026;PMS5003;15344;52.342;-1.290;2023-06-22T14:25:15;13;11;
28026;PMS5003;15344;52.342;-1.290;2023-06-22T14:27:41;13;13;
28026;PMS5003;15344;52.342;-1.290;2023-06-22T14:30:07;7;7;
28026;PMS5003;15344;52.342;-1.290;2023-06-22T14:32:33;9;9;
28026;PMS5003;15344;52.342;-1.290;2023-06-22T14:34:58;13;11;
28026;PMS5003;15344;52.342;-1.290;2023-06-22T14:37:24;10;10;
28026;PMS5003;15344;52.342;-1.290;2023-06-22T14:39:49;11;11;
28026;PMS5003;15344;52.342;-1.290;2023-06-22T14:42:15;11;9;
28026;PMS5003;15344;52.342;-1.290;2023-06-22T14:44:41;11;9;
28026;PMS5003;15344;52.342;-1.290;2023-06-22T14:47:06;8;8;
28026;PMS5003;15344;52.342;-1.290;2023-06-22T14:49:32;12;10;
28026;PMS5003;15344;52.342;-1.290;2023-06-22T14:51:58;10;10;
28026;PMS5003;15344;52.342;-1.290;2023-06-22T14:54:24;12;11;
28026;PMS5003;15344;52.342;-1.290;2023-06-22T14:56:50;9;9;
28026;PMS5003;15344;52.342;-1.290;2023-06-22T14:59:15;16;12;
28026;PMS5003;15344;52.342;-1.290;2023-06-22T15:01:41;9;9;
28026;PMS5003;15344;52.342;-1.290;2023-06-22T15:04:06;16;11;
28026;PMS5003;15344;52.342;-1.290;2023-06-22T15:06:32;11;11;
28026;PMS5003;15344;52.342;-1.290;2023-06-22T15:08:58;8;8;
28026;PMS5003;15344;52.342;-1.290;2023-06-22T15:11:24;12;12;
28026;PMS5003;15344;52.342;-1.290;2023-06-22T15:13:49;10;9;
28026;PMS5003;15344;52.342;-1.290;2023-06-22T15:16:15;9;8;
28026;PMS5003;15344;52.342;-1.290;2023-06-22T15:18:41;8;8;
28026;PMS5003;15344;52.342;-1.290;2023-06-22T15:21:07;6;5;
28026;PMS5003;15344;52.342;-1.290;2023-06-22T15:23:33;9;7;
28026;PMS5003;15344;52.342;-1.290;2023-06-22T15:26:02;9;7;
28026;PMS5003;15344;52.342;-1.290;2023-06-22T15:28:24;5;5;
28026;PMS5003;15344;52.342;-1.290;2023-06-22T15:30:50;5;4;
28026;PMS5003;15344;52.342;-1.290;2023-06-22T15:33:16;9;6;
28026;PMS5003;15344;52.342;-1.290;2023-06-22T15:35:41;6;5;
28026;PMS5003;15344;52.342;-1.290;2023-06-22T15:38:07;8;7;
28026;PMS5003;15344;52.342;-1.290;2023-06-22T15:40:33;10;7;
28026;PMS5003;15344;52.342;-1.290;2023-06-22T15:42:59;7;6;
28026;PMS5003;15344;52.342;-1.290;2023-06-22T15:45:25;7;7;
28026;PMS5003;15344;52.342;-1.290;2023-06-22T15:47:50;6;6;
28026;PMS5003;15344;52.342;-1.290;2023-06-22T15:50:16;5;5;
28026;PMS5003;15344;52.342;-1.290;2023-06-22T15:52:42;7;5;
28026;PMS5003;15344;52.342;-1.290;2023-06-22T15:55:08;4;3;
28026;PMS5003;15344;52.342;-1.290;2023-06-22T15:57:34;7;6;
28026;PMS5003;15344;52.342;-1.290;2023-06-22T15:59:59;6;6;
28026;PMS5003;15344;52.342;-1.290;2023-06-22T16:02:25;8;6;
28026;PMS5003;15344;52.342;-1.290;2023-06-22T16:04:51;6;6;
28026;PMS5003;15344;52.342;-1.290;2023-06-22T16:07:17;5;5;
28026;PMS5003;15344;52.342;-1.290;2023-06-22T16:09:43;4;4;
28026;PMS5003;15344;52.342;-1.290;2023-06-22T16:12:09;4;4;
28026;PMS5003;15344;52.342;-1.290;2023-06-22T16:14:34;7;7;